createdAt,value
2022-11-15T00:01:10.901Z,9.45
2022-11-15T00:03:40.951Z,9.45
2022-11-15T00:06:11.005Z,9.46
2022-11-15T00:08:41.027Z,9.47
2022-11-15T00:11:15.856Z,9.47
2022-11-15T00:13:45.578Z,9.47
2022-11-15T00:16:15.383Z,9.48
2022-11-15T00:18:50.419Z,9.49
2022-11-15T00:21:21.406Z,9.49
2022-11-15T00:23:51.126Z,9.48
2022-11-15T00:26:23.447Z,9.48
2022-11-15T00:28:55.995Z,9.47
2022-11-15T00:31:25.723Z,9.46
2022-11-15T00:33:55.465Z,9.43
2022-11-15T00:36:25.189Z,9.42
2022-11-15T00:38:54.931Z,9.39
2022-11-15T00:41:27.281Z,9.35
2022-11-15T00:43:57.015Z,9.33
2022-11-15T00:46:26.744Z,9.30
2022-11-15T00:48:56.483Z,9.23
2022-11-15T00:51:26.212Z,9.20
2022-11-15T00:53:57.094Z,9.16
2022-11-15T00:56:29.460Z,9.11
2022-11-15T00:58:59.376Z,9.06
2022-11-15T01:01:29.310Z,9.03
2022-11-15T01:04:01.566Z,9.03
2022-11-15T01:06:31.639Z,9.03
2022-11-15T01:09:01.347Z,9.02
2022-11-15T01:11:33.646Z,9.01
2022-11-15T01:14:03.388Z,9.02
2022-11-15T01:16:33.992Z,9.02
2022-11-15T01:19:04.119Z,9.03
2022-11-15T01:21:33.992Z,9.05
2022-11-15T01:24:03.728Z,9.08
2022-11-15T01:26:36.071Z,9.09
2022-11-15T01:29:05.830Z,9.09
2022-11-15T01:31:35.595Z,9.09
2022-11-15T01:34:05.356Z,9.12
2022-11-15T01:36:35.099Z,9.13
2022-11-15T01:39:04.945Z,9.13
2022-11-15T01:41:37.695Z,9.13
2022-11-15T01:44:37.492Z,9.13
2022-11-15T01:47:12.163Z,9.13
2022-11-15T01:49:46.298Z,9.13
2022-11-15T01:52:22.946Z,9.13
2022-11-15T01:54:57.643Z,9.11
2022-11-15T01:57:30.426Z,9.08
2022-11-15T02:00:04.379Z,9.09
2022-11-15T02:02:35.413Z,9.08
2022-11-15T02:05:06.322Z,9.07
2022-11-15T02:07:38.260Z,9.03
2022-11-15T02:10:12.273Z,9.02
2022-11-15T02:12:45.483Z,9.02
2022-11-15T02:15:15.804Z,9.01
2022-11-15T02:17:59.227Z,9.00
2022-11-15T02:20:47.666Z,8.99
2022-11-15T02:23:58.955Z,8.97
2022-11-15T02:26:55.094Z,8.97
2022-11-15T02:29:38.991Z,8.97
2022-11-15T02:32:23.740Z,8.96
2022-11-15T02:35:00.639Z,8.98
2022-11-15T02:37:36.293Z,8.95
2022-11-15T02:40:14.691Z,8.93
2022-11-15T02:43:06.968Z,8.93
2022-11-15T02:45:43.331Z,8.91
2022-11-15T02:48:16.879Z,8.92
2022-11-15T02:50:47.873Z,8.92
2022-11-15T02:53:18.574Z,8.93
2022-11-15T02:55:52.609Z,8.95
2022-11-15T02:58:44.875Z,8.93
2022-11-15T03:01:26.102Z,8.90
2022-11-15T03:04:07.549Z,8.90
2022-11-15T03:06:46.982Z,8.91
2022-11-15T03:09:28.174Z,8.91
2022-11-15T03:12:03.406Z,8.90
2022-11-15T03:14:37.730Z,8.90
2022-11-15T03:17:16.120Z,8.91
2022-11-15T03:19:51.468Z,8.91
2022-11-15T03:22:24.732Z,8.91
2022-11-15T03:24:58.271Z,8.92
2022-11-15T03:27:35.787Z,8.92
2022-11-15T03:30:09.404Z,8.93
2022-11-15T03:32:44.475Z,8.95
2022-11-15T03:35:21.921Z,8.98
2022-11-15T03:37:56.766Z,9.00
2022-11-15T03:40:31.696Z,9.01
2022-11-15T03:43:11.537Z,9.02
2022-11-15T03:45:48.213Z,9.04
2022-11-15T03:48:22.832Z,9.06
2022-11-15T03:50:55.891Z,9.07
2022-11-15T03:53:25.752Z,9.08
2022-11-15T03:55:55.586Z,9.10
2022-11-15T03:58:27.953Z,9.09
2022-11-15T04:00:57.814Z,9.12
2022-11-15T04:03:27.631Z,9.12
2022-11-15T04:05:59.926Z,9.15
2022-11-15T04:08:29.625Z,9.17
2022-11-15T04:11:00.042Z,9.18
2022-11-15T04:13:32.248Z,9.19
2022-11-15T04:16:02.390Z,9.21
2022-11-15T04:18:32.131Z,9.22
2022-11-15T04:21:16.858Z,9.23
2022-11-15T04:24:01.662Z,9.23
2022-11-15T04:26:31.463Z,9.25
2022-11-15T04:29:13.576Z,9.26
2022-11-15T04:31:43.308Z,9.26
2022-11-15T04:34:13.012Z,9.30
2022-11-15T04:36:57.754Z,9.31
2022-11-15T04:39:28.646Z,9.33
2022-11-15T04:41:58.343Z,9.32
2022-11-15T04:44:28.091Z,9.33
2022-11-15T04:46:57.760Z,9.34
2022-11-15T04:49:27.569Z,9.35
2022-11-15T04:52:00.610Z,9.35
2022-11-15T04:54:30.349Z,9.34
2022-11-15T04:57:00.064Z,9.34
2022-11-15T04:59:30.039Z,9.36
2022-11-15T05:01:59.761Z,9.38
2022-11-15T05:04:27.619Z,9.39
2022-11-15T05:07:00.231Z,9.40
2022-11-15T05:09:30.007Z,9.41
2022-11-15T05:11:59.713Z,9.42
2022-11-15T05:14:30.366Z,9.42
2022-11-15T05:17:00.147Z,9.45
2022-11-15T05:19:30.038Z,9.46
2022-11-15T05:22:03.559Z,9.48
2022-11-15T05:24:33.445Z,9.49
2022-11-15T05:27:03.260Z,9.51
2022-11-15T05:29:33.093Z,9.54
2022-11-15T05:32:03.322Z,9.53
2022-11-15T05:34:33.140Z,9.53
2022-11-15T05:37:05.619Z,9.57
2022-11-15T05:39:35.688Z,9.57
2022-11-15T05:42:11.299Z,9.61
2022-11-15T05:44:45.067Z,9.63
2022-11-15T05:47:19.992Z,9.65
2022-11-15T05:49:52.465Z,9.66
2022-11-15T05:52:29.495Z,9.70
2022-11-15T05:55:00.669Z,9.71
2022-11-15T05:57:30.475Z,9.73
2022-11-15T06:00:00.410Z,9.75
2022-11-15T06:02:30.211Z,9.78
2022-11-15T06:04:59.992Z,9.80
2022-11-15T06:07:32.994Z,9.81
2022-11-15T06:10:03.089Z,9.82
2022-11-15T06:12:32.841Z,9.83
2022-11-15T06:15:02.589Z,9.85
2022-11-15T06:17:32.999Z,9.86
2022-11-15T06:20:02.800Z,9.88
2022-11-15T06:22:35.213Z,9.89
2022-11-15T06:25:05.783Z,9.90
2022-11-15T06:27:35.700Z,9.92
2022-11-15T06:30:05.443Z,9.94
2022-11-15T06:32:35.167Z,9.95
2022-11-15T06:35:06.030Z,9.97
2022-11-15T06:37:38.359Z,9.98
2022-11-15T06:40:09.472Z,10.00
2022-11-15T06:42:39.366Z,10.01
2022-11-15T06:45:10.220Z,10.01
2022-11-15T06:47:39.950Z,10.02
2022-11-15T06:50:10.919Z,10.04
2022-11-15T06:52:43.398Z,10.05
2022-11-15T06:55:13.153Z,10.08
2022-11-15T06:57:50.576Z,10.10
2022-11-15T07:00:22.154Z,10.13
2022-11-15T07:02:52.416Z,10.13
2022-11-15T07:05:22.132Z,10.15
2022-11-15T07:07:58.939Z,10.18
2022-11-15T07:10:29.543Z,10.19
2022-11-15T07:13:00.311Z,10.22
2022-11-15T07:15:30.402Z,10.23
2022-11-15T07:18:03.956Z,10.27
2022-11-15T07:20:33.717Z,10.29
2022-11-15T07:23:07.716Z,10.30
2022-11-15T07:25:37.591Z,10.33
2022-11-15T07:28:08.044Z,10.34
2022-11-15T07:30:43.991Z,10.38
2022-11-15T07:33:15.167Z,10.39
2022-11-15T07:35:47.546Z,10.40
2022-11-15T07:38:21.881Z,10.44
2022-11-15T07:40:59.403Z,10.46
2022-11-15T07:43:31.089Z,10.50
2022-11-15T07:46:01.070Z,10.52
2022-11-15T07:48:42.834Z,10.54
2022-11-15T07:51:16.055Z,10.57
2022-11-15T07:53:48.696Z,10.60
2022-11-15T07:56:18.839Z,10.63
2022-11-15T07:58:51.324Z,10.66
2022-11-15T08:01:21.164Z,10.70
2022-11-15T08:03:50.984Z,10.73
2022-11-15T08:06:20.712Z,10.75
2022-11-15T08:08:53.492Z,10.78
2022-11-15T08:11:23.198Z,10.81
2022-11-15T08:13:52.975Z,10.85
2022-11-15T08:16:22.712Z,10.91
2022-11-15T08:18:52.603Z,11.03
2022-11-15T08:21:23.764Z,11.12
2022-11-15T08:23:56.103Z,11.16
2022-11-15T08:26:26.023Z,11.18
2022-11-15T08:28:55.739Z,11.21
2022-11-15T08:31:25.827Z,11.24
2022-11-15T08:33:55.599Z,11.25
2022-11-15T08:36:25.447Z,11.27
2022-11-15T08:38:57.889Z,11.29
2022-11-15T08:41:32.193Z,11.31
2022-11-15T08:44:02.148Z,11.31
2022-11-15T08:46:31.948Z,11.32
2022-11-15T08:49:01.729Z,11.35
2022-11-15T08:51:31.552Z,11.36
2022-11-15T08:54:03.936Z,11.39
2022-11-15T08:56:33.764Z,11.42
2022-11-15T08:59:03.540Z,11.45
2022-11-15T09:01:33.777Z,11.51
2022-11-15T09:04:05.022Z,11.55
2022-11-15T09:06:34.792Z,11.59
2022-11-15T09:09:07.543Z,11.64
2022-11-15T09:11:37.313Z,11.69
2022-11-15T09:14:07.045Z,11.74
2022-11-15T09:16:36.890Z,11.79
2022-11-15T09:19:11.721Z,11.83
2022-11-15T09:21:41.849Z,11.85
2022-11-15T09:24:14.375Z,11.88
2022-11-15T09:26:44.147Z,11.90
2022-11-15T09:29:13.874Z,11.94
2022-11-15T09:31:43.852Z,11.96
2022-11-15T09:34:13.561Z,11.96
2022-11-15T09:36:43.301Z,11.98
2022-11-15T09:39:15.723Z,11.99
2022-11-15T09:42:07.189Z,11.99
2022-11-15T09:44:52.353Z,12.00
2022-11-15T09:48:04.581Z,12.00
2022-11-15T09:50:40.847Z,11.99
2022-11-15T09:53:16.629Z,11.99
2022-11-15T09:55:58.955Z,12.01
2022-11-15T09:58:36.616Z,12.04
2022-11-15T10:01:12.110Z,12.06
2022-11-15T10:03:46.701Z,12.08
2022-11-15T10:06:25.877Z,12.11
2022-11-15T10:09:02.078Z,12.19
2022-11-15T10:11:38.311Z,12.26
2022-11-15T10:14:15.345Z,12.30
2022-11-15T10:17:06.384Z,12.35
2022-11-15T10:19:43.108Z,12.39
2022-11-15T10:22:27.157Z,12.43
2022-11-15T10:25:14.559Z,12.46
2022-11-15T10:27:59.046Z,12.48
2022-11-15T10:30:36.619Z,12.52
2022-11-15T10:33:28.055Z,12.58
2022-11-15T10:36:23.312Z,12.58
2022-11-15T10:39:01.505Z,12.61
2022-11-15T10:41:37.062Z,12.65
2022-11-15T10:44:33.721Z,12.69
2022-11-15T10:47:26.179Z,12.73
2022-11-15T10:50:09.672Z,12.75
2022-11-15T10:52:41.620Z,12.78
2022-11-15T10:55:28.652Z,12.85
2022-11-15T10:58:00.599Z,12.89
2022-11-15T11:00:36.829Z,12.93
2022-11-15T11:03:08.515Z,12.97
2022-11-15T11:05:42.525Z,12.97
2022-11-15T11:08:27.248Z,12.99
2022-11-15T11:11:02.569Z,13.00
2022-11-15T11:13:34.959Z,13.02
2022-11-15T11:16:23.222Z,13.04
2022-11-15T11:19:00.346Z,13.05
2022-11-15T11:21:40.545Z,13.10
2022-11-15T11:24:19.856Z,13.14
2022-11-15T11:26:59.625Z,13.20
2022-11-15T11:29:51.339Z,13.29
2022-11-15T11:32:40.899Z,13.33
2022-11-15T11:35:17.789Z,13.39
2022-11-15T11:37:51.517Z,13.42
2022-11-15T11:40:37.158Z,13.46
2022-11-15T11:43:17.350Z,13.47
2022-11-15T11:46:14.001Z,13.49
2022-11-15T11:48:49.120Z,13.52
2022-11-15T11:51:24.632Z,13.56
2022-11-15T11:54:01.335Z,13.58
2022-11-15T11:56:35.625Z,13.63
2022-11-15T11:59:11.146Z,13.67
2022-11-15T12:01:45.870Z,13.69
2022-11-15T12:04:23.413Z,13.71
2022-11-15T12:06:57.857Z,13.74
2022-11-15T12:09:38.070Z,13.78
2022-11-15T12:12:19.719Z,13.80
2022-11-15T12:14:53.390Z,13.81
2022-11-15T12:17:27.564Z,13.80
2022-11-15T12:20:03.187Z,13.80
2022-11-15T12:22:45.447Z,13.78
2022-11-15T12:25:22.606Z,13.77
2022-11-15T12:27:58.268Z,13.74
2022-11-15T12:30:31.947Z,13.73
2022-11-15T12:33:03.627Z,13.71
2022-11-15T12:35:44.026Z,13.71
2022-11-15T12:38:14.804Z,13.69
2022-11-15T12:41:16.851Z,13.69
2022-11-15T12:43:47.981Z,13.67
2022-11-15T12:46:25.791Z,13.66
2022-11-15T12:49:00.667Z,13.67
2022-11-15T12:52:02.995Z,13.66
2022-11-15T12:55:00.376Z,13.63
2022-11-15T12:57:37.377Z,13.60
2022-11-15T13:00:45.063Z,13.62
2022-11-15T13:03:32.959Z,13.67
2022-11-15T13:06:12.693Z,13.71
2022-11-15T13:08:53.895Z,13.71
2022-11-15T13:11:57.048Z,13.68
2022-11-15T13:14:43.679Z,13.68
2022-11-15T13:17:30.863Z,13.68
2022-11-15T13:20:22.090Z,13.69
2022-11-15T13:22:55.752Z,13.71
2022-11-15T13:25:59.937Z,13.73
2022-11-15T13:28:36.664Z,13.74
2022-11-15T13:31:23.346Z,13.72
2022-11-15T13:33:54.061Z,13.68
2022-11-15T13:36:29.953Z,13.67
2022-11-15T13:39:02.767Z,13.64
2022-11-15T13:41:34.147Z,13.64
2022-11-15T13:44:05.836Z,13.62
2022-11-15T13:46:37.063Z,13.60
2022-11-15T13:49:08.619Z,13.58
2022-11-15T13:51:45.876Z,13.58
2022-11-15T13:54:22.276Z,13.55
2022-11-15T13:56:58.603Z,13.53
2022-11-15T13:59:30.782Z,13.50
2022-11-15T14:02:03.171Z,13.49
2022-11-15T14:04:36.033Z,13.47
2022-11-15T14:07:08.516Z,13.44
2022-11-15T14:09:41.364Z,13.42
2022-11-15T14:12:30.342Z,13.41
2022-11-15T14:15:00.940Z,13.39
2022-11-15T14:17:44.486Z,13.36
2022-11-15T14:20:31.995Z,13.32
2022-11-15T14:23:06.464Z,13.29
2022-11-15T14:25:39.040Z,13.26
2022-11-15T14:28:15.550Z,13.21
2022-11-15T14:30:51.271Z,13.18
2022-11-15T14:33:27.111Z,13.15
2022-11-15T14:35:57.143Z,13.10
2022-11-15T14:38:30.783Z,13.07
2022-11-15T14:41:00.852Z,13.03
2022-11-15T14:43:30.634Z,12.99
2022-11-15T14:46:00.526Z,12.97
2022-11-15T14:48:30.582Z,12.94
2022-11-15T14:51:00.808Z,12.86
2022-11-15T14:53:33.149Z,12.83
2022-11-15T14:56:02.901Z,12.78
2022-11-15T14:58:32.857Z,12.75
2022-11-15T15:01:02.874Z,12.70
2022-11-15T15:03:32.739Z,12.66
2022-11-15T15:06:02.503Z,12.65
2022-11-15T15:08:35.221Z,12.59
2022-11-15T15:11:05.435Z,12.52
2022-11-15T15:13:35.209Z,12.46
2022-11-15T15:16:05.147Z,12.40
2022-11-15T15:18:34.943Z,12.32
2022-11-15T15:21:08.213Z,12.27
2022-11-15T15:23:40.711Z,12.23
2022-11-15T15:26:11.695Z,12.19
2022-11-15T15:28:41.710Z,12.13
2022-11-15T15:31:12.667Z,12.09
2022-11-15T15:33:42.430Z,12.07
2022-11-15T15:36:15.103Z,12.05
2022-11-15T15:38:48.017Z,12.00
2022-11-15T15:41:19.724Z,11.96
2022-11-15T15:43:49.525Z,11.90
2022-11-15T15:46:20.883Z,11.86
2022-11-15T15:48:51.157Z,11.81
2022-11-15T15:51:21.127Z,11.77
2022-11-15T15:53:58.184Z,11.72
2022-11-15T15:56:29.480Z,11.68
2022-11-15T15:58:59.255Z,11.62
2022-11-15T16:01:29.063Z,11.57
2022-11-15T16:03:58.889Z,11.52
2022-11-15T16:06:40.397Z,11.49
2022-11-15T16:09:20.203Z,11.46
2022-11-15T16:11:50.916Z,11.44
2022-11-15T16:14:20.709Z,11.39
2022-11-15T16:16:50.531Z,11.36
2022-11-15T16:19:20.314Z,11.33
2022-11-15T16:21:50.113Z,11.30
2022-11-15T16:24:23.648Z,11.27
2022-11-15T16:26:54.830Z,11.24
2022-11-15T16:29:24.574Z,11.23
2022-11-15T16:31:54.404Z,11.21
2022-11-15T16:34:30.014Z,11.18
2022-11-15T16:37:00.880Z,11.14
2022-11-15T16:39:34.095Z,11.12
2022-11-15T16:42:03.892Z,11.10
2022-11-15T16:44:33.746Z,11.06
2022-11-15T16:47:05.143Z,11.03
2022-11-15T16:49:34.926Z,11.00
2022-11-15T16:52:04.659Z,10.99
2022-11-15T16:54:37.031Z,10.97
2022-11-15T16:57:07.284Z,10.95
2022-11-15T16:59:38.454Z,10.93
2022-11-15T17:02:13.755Z,10.93
2022-11-15T17:04:43.734Z,10.92
2022-11-15T17:07:13.599Z,10.92
2022-11-15T17:09:46.063Z,10.91
2022-11-15T17:12:17.140Z,10.91
2022-11-15T17:14:47.293Z,10.91
2022-11-15T17:17:17.194Z,10.94
2022-11-15T17:19:46.972Z,10.97
2022-11-15T17:22:16.847Z,10.98
2022-11-15T17:24:49.390Z,10.97
2022-11-15T17:27:22.185Z,10.99
2022-11-15T17:29:51.924Z,10.99
2022-11-15T17:32:21.664Z,11.04
2022-11-15T17:34:51.401Z,11.08
2022-11-15T17:37:21.177Z,11.11
2022-11-15T17:39:53.529Z,11.12
2022-11-15T17:42:23.355Z,11.15
2022-11-15T17:44:53.122Z,11.15
2022-11-15T17:47:22.820Z,11.19
2022-11-15T17:49:52.572Z,11.20
2022-11-15T17:52:22.319Z,11.21
2022-11-15T17:54:54.686Z,11.22
2022-11-15T17:57:24.437Z,11.24
2022-11-15T17:59:54.135Z,11.25
2022-11-15T18:02:23.859Z,11.26
2022-11-15T18:04:53.731Z,11.25
2022-11-15T18:07:23.562Z,11.24
2022-11-15T18:09:55.960Z,11.25
2022-11-15T18:12:25.664Z,11.24
2022-11-15T18:14:55.367Z,11.25
2022-11-15T18:17:25.079Z,11.27
2022-11-15T18:19:54.870Z,11.27
2022-11-15T18:22:25.164Z,11.28
2022-11-15T18:24:57.575Z,11.30
2022-11-15T18:27:27.289Z,11.30
2022-11-15T18:29:56.987Z,11.30
2022-11-15T18:32:26.819Z,11.28
2022-11-15T18:34:56.563Z,11.25
2022-11-15T18:37:26.419Z,11.23
2022-11-15T18:39:58.935Z,11.22
2022-11-15T18:42:30.715Z,11.20
2022-11-15T18:45:01.914Z,11.19
2022-11-15T18:47:32.140Z,11.20
2022-11-15T18:50:01.936Z,11.18
2022-11-15T18:52:31.712Z,11.17
2022-11-15T18:55:04.097Z,11.16
2022-11-15T18:57:34.203Z,11.13
2022-11-15T19:00:03.981Z,11.13
2022-11-15T19:02:33.763Z,11.14
2022-11-15T19:05:03.648Z,11.12
2022-11-15T19:07:33.659Z,11.09
2022-11-15T19:10:06.861Z,11.07
2022-11-15T19:12:38.939Z,11.08
2022-11-15T19:15:10.488Z,11.07
2022-11-15T19:17:41.319Z,11.03
2022-11-15T19:20:12.248Z,11.02
2022-11-15T19:22:42.123Z,11.07
2022-11-15T19:25:14.489Z,11.09
2022-11-15T19:27:44.252Z,11.07
2022-11-15T19:30:15.269Z,11.08
2022-11-15T19:32:45.005Z,11.11
2022-11-15T19:35:14.721Z,11.10
2022-11-15T19:37:44.642Z,11.11
2022-11-15T19:40:17.656Z,11.14
2022-11-15T19:42:47.562Z,11.12
2022-11-15T19:45:17.439Z,11.11
2022-11-15T19:47:48.373Z,11.11
2022-11-15T19:50:18.311Z,11.10
2022-11-15T19:52:48.215Z,11.12
2022-11-15T19:55:21.420Z,11.13
2022-11-15T19:57:51.732Z,11.14
2022-11-15T20:00:22.810Z,11.16
2022-11-15T20:02:52.572Z,11.18
2022-11-15T20:05:22.526Z,11.23
2022-11-15T20:07:53.476Z,11.24
2022-11-15T20:10:25.864Z,11.26
2022-11-15T20:12:55.599Z,11.26
2022-11-15T20:15:25.340Z,11.29
2022-11-15T20:17:55.087Z,11.29
2022-11-15T20:20:24.795Z,11.30
2022-11-15T20:22:55.067Z,11.31
2022-11-15T20:25:27.478Z,11.34
2022-11-15T20:27:57.226Z,11.36
2022-11-15T20:30:26.973Z,11.40
2022-11-15T20:32:56.684Z,11.41
2022-11-15T20:35:26.583Z,11.41
2022-11-15T20:37:56.447Z,11.42
2022-11-15T20:40:28.786Z,11.41
2022-11-15T20:42:58.601Z,11.43
2022-11-15T20:45:28.537Z,11.44
2022-11-15T20:47:58.913Z,11.45
2022-11-15T20:50:42.591Z,11.46
2022-11-15T20:53:14.722Z,11.48
2022-11-15T20:55:51.172Z,11.49
2022-11-15T20:58:21.178Z,11.51
2022-11-15T21:00:51.205Z,11.53
2022-11-15T21:03:21.068Z,11.55
2022-11-15T21:05:50.770Z,11.56
2022-11-15T21:08:20.482Z,11.57
2022-11-15T21:11:08.931Z,11.58
2022-11-15T21:13:38.993Z,11.61
2022-11-15T21:16:09.839Z,11.62
2022-11-15T21:18:39.822Z,11.63
2022-11-15T21:21:09.652Z,11.64
2022-11-15T21:23:40.919Z,11.66
2022-11-15T21:26:13.420Z,11.69
2022-11-15T21:28:43.498Z,11.70
2022-11-15T21:31:13.343Z,11.72
2022-11-15T21:33:43.094Z,11.69
2022-11-15T21:36:12.994Z,11.66
2022-11-15T21:38:42.847Z,11.66
2022-11-15T21:41:15.368Z,11.64
2022-11-15T21:43:45.031Z,11.62
2022-11-15T21:46:14.836Z,11.60
2022-11-15T21:48:44.583Z,11.56
2022-11-15T21:51:15.888Z,11.55
2022-11-15T21:53:45.639Z,11.51
2022-11-15T21:56:18.776Z,11.46
2022-11-15T21:58:48.816Z,11.44
2022-11-15T22:01:31.007Z,11.42
2022-11-15T22:04:01.194Z,11.38
2022-11-15T22:06:30.927Z,11.38
2022-11-15T22:09:01.236Z,11.36
2022-11-15T22:11:33.904Z,11.34
2022-11-15T22:14:04.473Z,11.32
2022-11-15T22:16:35.719Z,11.30
2022-11-15T22:19:05.663Z,11.27
2022-11-15T22:21:38.180Z,11.29
2022-11-15T22:24:10.028Z,11.27
2022-11-15T22:26:42.402Z,11.30
2022-11-15T22:29:12.097Z,11.30
2022-11-15T22:31:41.831Z,11.30
2022-11-15T22:34:11.567Z,11.31
2022-11-15T22:37:13.226Z,11.35
2022-11-15T22:39:35.086Z,11.37
2022-11-15T22:42:07.600Z,11.38
2022-11-15T22:44:37.336Z,11.38
2022-11-15T22:47:07.140Z,11.40
2022-11-15T22:49:36.891Z,11.42
2022-11-15T22:52:06.717Z,11.42
2022-11-15T22:54:36.431Z,11.43
2022-11-15T22:57:08.962Z,11.45
2022-11-15T22:59:38.749Z,11.43
2022-11-15T23:02:08.464Z,11.42
2022-11-15T23:04:38.171Z,11.43
2022-11-15T23:07:07.968Z,11.45
2022-11-15T23:09:37.722Z,11.48
2022-11-15T23:12:40.408Z,11.48
2022-11-15T23:15:11.063Z,11.47
2022-11-15T23:17:40.808Z,11.47
2022-11-15T23:20:36.789Z,11.46
2022-11-15T23:22:59.860Z,11.42
2022-11-15T23:25:29.569Z,11.40
2022-11-15T23:28:01.872Z,11.41
2022-11-15T23:30:43.991Z,11.43
2022-11-15T23:33:44.794Z,11.43
2022-11-15T23:36:14.471Z,11.44
2022-11-15T23:38:44.183Z,11.44
2022-11-15T23:41:13.931Z,11.45
2022-11-15T23:43:46.230Z,11.47
2022-11-15T23:46:16.027Z,11.50
2022-11-15T23:48:46.450Z,11.51
2022-11-15T23:51:16.172Z,11.51
2022-11-15T23:53:45.858Z,11.52
2022-11-15T23:56:17.254Z,11.53
2022-11-15T23:58:50.041Z,11.55
